sensor_id;sensor_type;location;lat;lon;timestamp;P1;durP1;ratioP1;P2;durP2;ratioP2
18806;SDS011;9531;52.030;4.380;2023-02-18T00:01:54;22.35;;;10.73;;
18806;SDS011;9531;52.030;4.380;2023-02-18T00:04:22;24.60;;;11.60;;
18806;SDS011;9531;52.030;4.380;2023-02-18T00:06:52;25.92;;;11.10;;
18806;SDS011;9531;52.030;4.380;2023-02-18T00:09:19;21.13;;;11.30;;
18806;SDS011;9531;52.030;4.380;2023-02-18T00:11:48;23.00;;;11.05;;
18806;SDS011;9531;52.030;4.380;2023-02-18T00:14:15;28.73;;;12.32;;
18806;SDS011;9531;52.030;4.380;2023-02-18T00:16:46;25.98;;;11.68;;
18806;SDS011;9531;52.030;4.380;2023-02-18T00:19:26;28.67;;;14.00;;
18806;SDS011;9531;52.030;4.380;2023-02-18T00:26:53;24.45;;;12.00;;
18806;SDS011;9531;52.030;4.380;2023-02-18T00:29:22;31.63;;;11.85;;
18806;SDS011;9531;52.030;4.380;2023-02-18T00:31:51;25.40;;;11.98;;
18806;SDS011;9531;52.030;4.380;2023-02-18T00:34:19;25.13;;;11.85;;
18806;SDS011;9531;52.030;4.380;2023-02-18T00:36:47;28.30;;;13.20;;
18806;SDS011;9531;52.030;4.380;2023-02-18T00:39:15;29.75;;;13.25;;
18806;SDS011;9531;52.030;4.380;2023-02-18T00:41:42;31.70;;;13.77;;
18806;SDS011;9531;52.030;4.380;2023-02-18T00:44:10;25.58;;;12.05;;
18806;SDS011;9531;52.030;4.380;2023-02-18T00:46:44;26.33;;;12.30;;
18806;SDS011;9531;52.030;4.380;2023-02-18T00:49:12;26.67;;;13.43;;
18806;SDS011;9531;52.030;4.380;2023-02-18T00:51:45;30.75;;;13.68;;
18806;SDS011;9531;52.030;4.380;2023-02-18T00:54:14;24.38;;;12.60;;
18806;SDS011;9531;52.030;4.380;2023-02-18T00:56:41;24.98;;;12.35;;
18806;SDS011;9531;52.030;4.380;2023-02-18T00:59:15;29.33;;;13.63;;
18806;SDS011;9531;52.030;4.380;2023-02-18T01:01:44;25.90;;;12.15;;
18806;SDS011;9531;52.030;4.380;2023-02-18T01:04:26;23.50;;;12.40;;
18806;SDS011;9531;52.030;4.380;2023-02-18T01:06:55;25.55;;;13.02;;
18806;SDS011;9531;52.030;4.380;2023-02-18T01:12:01;32.10;;;16.30;;
18806;SDS011;9531;52.030;4.380;2023-02-18T01:14:28;33.83;;;16.50;;
18806;SDS011;9531;52.030;4.380;2023-02-18T01:16:58;26.17;;;14.93;;
18806;SDS011;9531;52.030;4.380;2023-02-18T01:19:25;34.67;;;17.92;;
18806;SDS011;9531;52.030;4.380;2023-02-18T01:21:53;30.38;;;15.88;;
18806;SDS011;9531;52.030;4.380;2023-02-18T01:24:30;29.65;;;15.90;;
18806;SDS011;9531;52.030;4.380;2023-02-18T01:26:59;24.45;;;14.43;;
18806;SDS011;9531;52.030;4.380;2023-02-18T01:29:27;26.88;;;13.48;;
18806;SDS011;9531;52.030;4.380;2023-02-18T01:31:55;23.15;;;12.73;;
18806;SDS011;9531;52.030;4.380;2023-02-18T01:34:25;25.67;;;12.65;;
18806;SDS011;9531;52.030;4.380;2023-02-18T01:36:52;26.58;;;12.50;;
18806;SDS011;9531;52.030;4.380;2023-02-18T01:39:22;25.17;;;13.18;;
18806;SDS011;9531;52.030;4.380;2023-02-18T01:41:49;24.00;;;11.40;;
18806;SDS011;9531;52.030;4.380;2023-02-18T01:44:17;24.92;;;12.02;;
18806;SDS011;9531;52.030;4.380;2023-02-18T01:46:46;22.38;;;12.32;;
18806;SDS011;9531;52.030;4.380;2023-02-18T01:49:21;25.58;;;13.27;;
18806;SDS011;9531;52.030;4.380;2023-02-18T01:51:53;22.50;;;12.50;;
18806;SDS011;9531;52.030;4.380;2023-02-18T01:54:26;24.55;;;12.07;;
18806;SDS011;9531;52.030;4.380;2023-02-18T01:56:56;29.55;;;14.00;;
18806;SDS011;9531;52.030;4.380;2023-02-18T01:59:27;27.85;;;11.95;;
18806;SDS011;9531;52.030;4.380;2023-02-18T02:01:59;28.08;;;15.15;;
18806;SDS011;9531;52.030;4.380;2023-02-18T02:04:26;25.13;;;13.73;;
18806;SDS011;9531;52.030;4.380;2023-02-18T02:06:55;26.88;;;13.30;;
18806;SDS011;9531;52.030;4.380;2023-02-18T02:09:28;24.73;;;11.90;;
18806;SDS011;9531;52.030;4.380;2023-02-18T02:17:53;18.08;;;8.20;;
18806;SDS011;9531;52.030;4.380;2023-02-18T02:20:47;20.00;;;11.18;;
18806;SDS011;9531;52.030;4.380;2023-02-18T02:23:50;22.80;;;11.65;;
18806;SDS011;9531;52.030;4.380;2023-02-18T02:26:41;22.05;;;11.23;;
18806;SDS011;9531;52.030;4.380;2023-02-18T02:29:45;19.48;;;11.25;;
18806;SDS011;9531;52.030;4.380;2023-02-18T02:32:44;19.25;;;10.05;;
18806;SDS011;9531;52.030;4.380;2023-02-18T02:35:37;19.10;;;11.20;;
18806;SDS011;9531;52.030;4.380;2023-02-18T02:38:08;20.17;;;10.70;;
18806;SDS011;9531;52.030;4.380;2023-02-18T02:40:42;20.88;;;10.95;;
18806;SDS011;9531;52.030;4.380;2023-02-18T02:43:18;19.25;;;9.90;;
18806;SDS011;9531;52.030;4.380;2023-02-18T02:45:54;22.20;;;11.95;;
18806;SDS011;9531;52.030;4.380;2023-02-18T02:48:30;17.15;;;9.05;;
18806;SDS011;9531;52.030;4.380;2023-02-18T02:51:10;4.35;;;1.95;;
18806;SDS011;9531;52.030;4.380;2023-02-18T02:53:51;15.98;;;9.57;;
18806;SDS011;9531;52.030;4.380;2023-02-18T02:56:21;15.75;;;8.20;;
18806;SDS011;9531;52.030;4.380;2023-02-18T02:59:00;15.52;;;8.43;;
18806;SDS011;9531;52.030;4.380;2023-02-18T03:01:32;11.60;;;6.88;;
18806;SDS011;9531;52.030;4.380;2023-02-18T03:04:21;10.10;;;5.60;;
18806;SDS011;9531;52.030;4.380;2023-02-18T03:07:03;11.63;;;7.10;;
18806;SDS011;9531;52.030;4.380;2023-02-18T03:09:44;12.15;;;6.88;;
18806;SDS011;9531;52.030;4.380;2023-02-18T03:12:35;9.90;;;5.90;;
18806;SDS011;9531;52.030;4.380;2023-02-18T03:15:15;13.50;;;7.85;;
18806;SDS011;9531;52.030;4.380;2023-02-18T03:17:51;11.65;;;7.30;;
18806;SDS011;9531;52.030;4.380;2023-02-18T03:20:25;15.57;;;7.28;;
18806;SDS011;9531;52.030;4.380;2023-02-18T03:23:05;11.48;;;6.95;;
18806;SDS011;9531;52.030;4.380;2023-02-18T03:25:44;15.73;;;6.60;;
18806;SDS011;9531;52.030;4.380;2023-02-18T03:28:19;12.20;;;6.57;;
18806;SDS011;9531;52.030;4.380;2023-02-18T03:30:49;10.40;;;6.03;;
18806;SDS011;9531;52.030;4.380;2023-02-18T03:33:21;11.88;;;6.13;;
18806;SDS011;9531;52.030;4.380;2023-02-18T03:35:52;12.55;;;6.20;;
18806;SDS011;9531;52.030;4.380;2023-02-18T03:38:22;9.95;;;5.43;;
18806;SDS011;9531;52.030;4.380;2023-02-18T03:40:54;9.55;;;4.97;;
18806;SDS011;9531;52.030;4.380;2023-02-18T03:43:23;8.93;;;5.70;;
18806;SDS011;9531;52.030;4.380;2023-02-18T03:45:59;12.43;;;6.55;;
18806;SDS011;9531;52.030;4.380;2023-02-18T03:48:27;9.32;;;6.22;;
18806;SDS011;9531;52.030;4.380;2023-02-18T03:50:55;11.10;;;5.63;;
18806;SDS011;9531;52.030;4.380;2023-02-18T03:53:23;10.38;;;5.78;;
18806;SDS011;9531;52.030;4.380;2023-02-18T03:55:50;10.43;;;5.57;;
18806;SDS011;9531;52.030;4.380;2023-02-18T03:58:24;11.85;;;6.45;;
18806;SDS011;9531;52.030;4.380;2023-02-18T04:03:37;10.10;;;6.28;;
18806;SDS011;9531;52.030;4.380;2023-02-18T04:06:05;16.38;;;6.88;;
18806;SDS011;9531;52.030;4.380;2023-02-18T04:08:39;12.90;;;7.53;;
18806;SDS011;9531;52.030;4.380;2023-02-18T04:11:20;15.07;;;7.50;;
18806;SDS011;9531;52.030;4.380;2023-02-18T04:13:47;14.02;;;6.93;;
18806;SDS011;9531;52.030;4.380;2023-02-18T04:16:14;14.02;;;7.07;;
18806;SDS011;9531;52.030;4.380;2023-02-18T04:18:41;16.77;;;8.05;;
18806;SDS011;9531;52.030;4.380;2023-02-18T04:21:11;20.88;;;8.32;;
18806;SDS011;9531;52.030;4.380;2023-02-18T04:23:41;17.55;;;8.43;;
18806;SDS011;9531;52.030;4.380;2023-02-18T04:26:09;18.55;;;8.57;;
18806;SDS011;9531;52.030;4.380;2023-02-18T04:28:36;16.23;;;7.35;;
18806;SDS011;9531;52.030;4.380;2023-02-18T04:31:05;20.70;;;8.75;;
18806;SDS011;9531;52.030;4.380;2023-02-18T04:33:32;16.08;;;7.75;;
18806;SDS011;9531;52.030;4.380;2023-02-18T04:35:59;18.30;;;7.88;;
18806;SDS011;9531;52.030;4.380;2023-02-18T04:38:27;20.65;;;8.25;;
18806;SDS011;9531;52.030;4.380;2023-02-18T04:40:58;17.83;;;7.05;;
18806;SDS011;9531;52.030;4.380;2023-02-18T04:43:26;18.98;;;8.02;;
18806;SDS011;9531;52.030;4.380;2023-02-18T04:45:53;18.52;;;8.35;;
18806;SDS011;9531;52.030;4.380;2023-02-18T04:48:22;22.83;;;8.85;;
18806;SDS011;9531;52.030;4.380;2023-02-18T04:50:50;19.70;;;9.02;;
18806;SDS011;9531;52.030;4.380;2023-02-18T04:53:18;18.67;;;9.05;;
18806;SDS011;9531;52.030;4.380;2023-02-18T04:55:48;14.27;;;7.68;;
18806;SDS011;9531;52.030;4.380;2023-02-18T05:00:59;16.98;;;6.90;;
18806;SDS011;9531;52.030;4.380;2023-02-18T05:03:27;16.70;;;8.15;;
18806;SDS011;9531;52.030;4.380;2023-02-18T05:06:03;13.75;;;6.80;;
18806;SDS011;9531;52.030;4.380;2023-02-18T05:08:30;19.42;;;7.65;;
18806;SDS011;9531;52.030;4.380;2023-02-18T05:11:01;10.30;;;3.90;;
18806;SDS011;9531;52.030;4.380;2023-02-18T05:13:48;11.75;;;6.43;;
18806;SDS011;9531;52.030;4.380;2023-02-18T05:16:32;13.07;;;6.72;;
18806;SDS011;9531;52.030;4.380;2023-02-18T05:19:06;13.05;;;6.47;;
18806;SDS011;9531;52.030;4.380;2023-02-18T05:21:33;14.57;;;6.00;;
18806;SDS011;9531;52.030;4.380;2023-02-18T05:24:02;10.85;;;6.40;;
18806;SDS011;9531;52.030;4.380;2023-02-18T05:26:33;14.65;;;6.82;;
18806;SDS011;9531;52.030;4.380;2023-02-18T05:29:07;15.55;;;6.35;;
18806;SDS011;9531;52.030;4.380;2023-02-18T05:31:35;14.55;;;7.63;;
18806;SDS011;9531;52.030;4.380;2023-02-18T05:34:02;13.50;;;7.40;;
18806;SDS011;9531;52.030;4.380;2023-02-18T05:36:37;15.18;;;9.07;;
18806;SDS011;9531;52.030;4.380;2023-02-18T05:39:05;13.05;;;6.93;;
18806;SDS011;9531;52.030;4.380;2023-02-18T05:41:43;15.48;;;7.53;;
18806;SDS011;9531;52.030;4.380;2023-02-18T05:44:11;15.35;;;7.22;;
18806;SDS011;9531;52.030;4.380;2023-02-18T05:46:58;13.43;;;6.70;;
18806;SDS011;9531;52.030;4.380;2023-02-18T05:49:33;18.42;;;7.65;;
18806;SDS011;9531;52.030;4.380;2023-02-18T05:52:03;13.43;;;7.00;;
18806;SDS011;9531;52.030;4.380;2023-02-18T05:54:32;21.55;;;6.72;;
18806;SDS011;9531;52.030;4.380;2023-02-18T05:57:15;17.27;;;7.13;;
18806;SDS011;9531;52.030;4.380;2023-02-18T05:59:44;19.50;;;9.45;;
18806;SDS011;9531;52.030;4.380;2023-02-18T06:02:13;19.13;;;8.90;;
18806;SDS011;9531;52.030;4.380;2023-02-18T06:04:40;17.58;;;6.90;;
18806;SDS011;9531;52.030;4.380;2023-02-18T06:07:07;20.65;;;8.43;;
18806;SDS011;9531;52.030;4.380;2023-02-18T06:09:37;24.65;;;8.57;;
18806;SDS011;9531;52.030;4.380;2023-02-18T06:12:10;26.45;;;8.07;;
18806;SDS011;9531;52.030;4.380;2023-02-18T06:14:38;26.25;;;8.00;;
18806;SDS011;9531;52.030;4.380;2023-02-18T06:17:07;22.95;;;6.32;;
18806;SDS011;9531;52.030;4.380;2023-02-18T06:19:35;21.20;;;6.53;;
18806;SDS011;9531;52.030;4.380;2023-02-18T06:22:03;19.75;;;6.15;;
18806;SDS011;9531;52.030;4.380;2023-02-18T06:24:37;14.45;;;4.95;;
18806;SDS011;9531;52.030;4.380;2023-02-18T06:27:05;23.05;;;6.30;;
18806;SDS011;9531;52.030;4.380;2023-02-18T06:29:33;15.68;;;5.07;;
18806;SDS011;9531;52.030;4.380;2023-02-18T06:34:34;24.45;;;6.15;;
18806;SDS011;9531;52.030;4.380;2023-02-18T06:39:49;22.40;;;4.55;;
18806;SDS011;9531;52.030;4.380;2023-02-18T06:42:21;22.02;;;6.07;;
18806;SDS011;9531;52.030;4.380;2023-02-18T06:44:48;29.30;;;5.72;;
18806;SDS011;9531;52.030;4.380;2023-02-18T06:47:16;19.08;;;5.55;;
18806;SDS011;9531;52.030;4.380;2023-02-18T06:49:46;20.50;;;4.78;;
18806;SDS011;9531;52.030;4.380;2023-02-18T06:52:13;19.85;;;4.35;;
18806;SDS011;9531;52.030;4.380;2023-02-18T06:57:17;19.85;;;3.80;;
18806;SDS011;9531;52.030;4.380;2023-02-18T06:59:51;17.00;;;3.80;;
18806;SDS011;9531;52.030;4.380;2023-02-18T07:02:18;25.42;;;4.05;;
18806;SDS011;9531;52.030;4.380;2023-02-18T07:04:52;23.40;;;4.40;;
18806;SDS011;9531;52.030;4.380;2023-02-18T07:07:19;23.38;;;3.45;;
18806;SDS011;9531;52.030;4.380;2023-02-18T07:09:47;24.52;;;3.83;;
18806;SDS011;9531;52.030;4.380;2023-02-18T07:12:16;21.90;;;3.75;;
18806;SDS011;9531;52.030;4.380;2023-02-18T07:14:44;16.85;;;3.80;;
18806;SDS011;9531;52.030;4.380;2023-02-18T07:17:11;22.42;;;4.30;;
18806;SDS011;9531;52.030;4.380;2023-02-18T07:19:39;17.80;;;3.85;;
18806;SDS011;9531;52.030;4.380;2023-02-18T07:22:07;25.05;;;4.28;;
18806;SDS011;9531;52.030;4.380;2023-02-18T07:24:36;20.10;;;3.25;;
18806;SDS011;9531;52.030;4.380;2023-02-18T07:27:04;18.30;;;3.28;;
18806;SDS011;9531;52.030;4.380;2023-02-18T07:29:37;25.35;;;3.78;;
18806;SDS011;9531;52.030;4.380;2023-02-18T07:32:04;16.10;;;3.40;;
18806;SDS011;9531;52.030;4.380;2023-02-18T07:34:32;27.25;;;4.03;;
18806;SDS011;9531;52.030;4.380;2023-02-18T07:37:04;24.30;;;3.80;;
18806;SDS011;9531;52.030;4.380;2023-02-18T07:39:38;24.42;;;3.55;;
18806;SDS011;9531;52.030;4.380;2023-02-18T07:42:13;19.13;;;3.45;;
18806;SDS011;9531;52.030;4.380;2023-02-18T07:44:42;19.45;;;3.38;;
18806;SDS011;9531;52.030;4.380;2023-02-18T07:47:11;22.73;;;3.33;;
18806;SDS011;9531;52.030;4.380;2023-02-18T07:49:40;29.67;;;4.05;;
18806;SDS011;9531;52.030;4.380;2023-02-18T07:52:13;24.23;;;3.25;;
18806;SDS011;9531;52.030;4.380;2023-02-18T07:54:44;24.50;;;3.85;;
18806;SDS011;9531;52.030;4.380;2023-02-18T07:57:12;25.58;;;3.88;;
18806;SDS011;9531;52.030;4.380;2023-02-18T07:59:41;18.88;;;2.88;;
18806;SDS011;9531;52.030;4.380;2023-02-18T08:02:08;20.92;;;3.42;;
18806;SDS011;9531;52.030;4.380;2023-02-18T08:04:45;19.92;;;3.88;;
18806;SDS011;9531;52.030;4.380;2023-02-18T08:07:13;21.90;;;3.60;;
18806;SDS011;9531;52.030;4.380;2023-02-18T08:09:41;24.70;;;4.28;;
18806;SDS011;9531;52.030;4.380;2023-02-18T08:12:11;19.77;;;3.53;;
18806;SDS011;9531;52.030;4.380;2023-02-18T08:14:38;19.60;;;3.55;;
18806;SDS011;9531;52.030;4.380;2023-02-18T08:17:07;18.23;;;3.45;;
18806;SDS011;9531;52.030;4.380;2023-02-18T08:19:35;19.02;;;4.25;;
18806;SDS011;9531;52.030;4.380;2023-02-18T08:22:09;23.83;;;3.55;;
18806;SDS011;9531;52.030;4.380;2023-02-18T08:24:36;21.85;;;3.70;;
18806;SDS011;9531;52.030;4.380;2023-02-18T08:27:03;22.73;;;2.80;;
18806;SDS011;9531;52.030;4.380;2023-02-18T08:29:32;14.75;;;3.03;;
18806;SDS011;9531;52.030;4.380;2023-02-18T08:31:59;18.73;;;3.28;;
18806;SDS011;9531;52.030;4.380;2023-02-18T08:34:26;13.75;;;2.28;;
18806;SDS011;9531;52.030;4.380;2023-02-18T08:36:53;16.83;;;3.38;;
18806;SDS011;9531;52.030;4.380;2023-02-18T08:39:20;21.35;;;3.45;;
18806;SDS011;9531;52.030;4.380;2023-02-18T08:41:47;19.02;;;2.70;;
18806;SDS011;9531;52.030;4.380;2023-02-18T08:44:15;9.07;;;2.03;;
18806;SDS011;9531;52.030;4.380;2023-02-18T08:46:47;15.77;;;2.60;;
18806;SDS011;9531;52.030;4.380;2023-02-18T08:49:15;16.63;;;2.65;;
18806;SDS011;9531;52.030;4.380;2023-02-18T08:51:44;15.65;;;3.55;;
18806;SDS011;9531;52.030;4.380;2023-02-18T08:54:12;23.45;;;3.90;;
18806;SDS011;9531;52.030;4.380;2023-02-18T08:56:39;25.27;;;3.80;;
18806;SDS011;9531;52.030;4.380;2023-02-18T09:01:36;17.77;;;2.63;;
18806;SDS011;9531;52.030;4.380;2023-02-18T09:04:05;26.30;;;4.40;;
18806;SDS011;9531;52.030;4.380;2023-02-18T09:06:35;15.00;;;2.83;;
18806;SDS011;9531;52.030;4.380;2023-02-18T09:09:04;15.43;;;3.70;;
18806;SDS011;9531;52.030;4.380;2023-02-18T09:11:31;26.00;;;3.58;;
18806;SDS011;9531;52.030;4.380;2023-02-18T09:13:59;23.90;;;3.85;;
18806;SDS011;9531;52.030;4.380;2023-02-18T09:16:29;30.58;;;3.83;;
18806;SDS011;9531;52.030;4.380;2023-02-18T09:18:56;26.45;;;3.75;;
18806;SDS011;9531;52.030;4.380;2023-02-18T09:21:24;19.88;;;3.17;;
18806;SDS011;9531;52.030;4.380;2023-02-18T09:23:54;25.27;;;3.40;;
18806;SDS011;9531;52.030;4.380;2023-02-18T09:26:21;28.75;;;3.55;;
18806;SDS011;9531;52.030;4.380;2023-02-18T09:28:50;23.20;;;3.70;;
18806;SDS011;9531;52.030;4.380;2023-02-18T09:31:19;13.93;;;2.53;;
18806;SDS011;9531;52.030;4.380;2023-02-18T09:33:49;15.25;;;2.90;;
18806;SDS011;9531;52.030;4.380;2023-02-18T09:36:18;17.17;;;3.40;;
18806;SDS011;9531;52.030;4.380;2023-02-18T09:38:54;19.67;;;3.20;;
18806;SDS011;9531;52.030;4.380;2023-02-18T09:41:25;19.55;;;3.25;;
18806;SDS011;9531;52.030;4.380;2023-02-18T09:43:56;16.20;;;3.17;;
18806;SDS011;9531;52.030;4.380;2023-02-18T09:46:29;18.17;;;2.78;;
18806;SDS011;9531;52.030;4.380;2023-02-18T09:49:00;21.60;;;3.10;;
18806;SDS011;9531;52.030;4.380;2023-02-18T09:51:31;15.75;;;2.85;;
18806;SDS011;9531;52.030;4.380;2023-02-18T09:53:59;11.43;;;2.00;;
18806;SDS011;9531;52.030;4.380;2023-02-18T09:56:28;13.63;;;2.22;;
18806;SDS011;9531;52.030;4.380;2023-02-18T09:58:58;16.27;;;2.72;;
18806;SDS011;9531;52.030;4.380;2023-02-18T10:01:31;16.85;;;3.38;;
18806;SDS011;9531;52.030;4.380;2023-02-18T10:04:02;14.60;;;2.88;;
18806;SDS011;9531;52.030;4.380;2023-02-18T10:06:43;12.63;;;2.15;;
18806;SDS011;9531;52.030;4.380;2023-02-18T10:09:18;20.42;;;3.20;;
18806;SDS011;9531;52.030;4.380;2023-02-18T10:11:49;16.35;;;2.80;;
18806;SDS011;9531;52.030;4.380;2023-02-18T10:14:20;19.35;;;3.17;;
18806;SDS011;9531;52.030;4.380;2023-02-18T10:16:50;17.52;;;2.80;;
18806;SDS011;9531;52.030;4.380;2023-02-18T10:19:22;12.93;;;2.25;;
18806;SDS011;9531;52.030;4.380;2023-02-18T10:21:54;18.60;;;2.72;;
18806;SDS011;9531;52.030;4.380;2023-02-18T10:24:26;18.55;;;2.70;;
18806;SDS011;9531;52.030;4.380;2023-02-18T10:26:56;12.25;;;2.13;;
18806;SDS011;9531;52.030;4.380;2023-02-18T10:29:26;14.00;;;2.83;;
18806;SDS011;9531;52.030;4.380;2023-02-18T10:31:56;9.13;;;1.90;;
18806;SDS011;9531;52.030;4.380;2023-02-18T10:34:35;20.27;;;2.90;;
18806;SDS011;9531;52.030;4.380;2023-02-18T10:37:10;16.20;;;3.03;;
18806;SDS011;9531;52.030;4.380;2023-02-18T10:39:54;14.80;;;2.20;;
18806;SDS011;9531;52.030;4.380;2023-02-18T10:42:31;18.00;;;2.70;;
18806;SDS011;9531;52.030;4.380;2023-02-18T10:45:17;21.40;;;2.70;;
18806;SDS011;9531;52.030;4.380;2023-02-18T10:47:59;12.27;;;2.25;;
18806;SDS011;9531;52.030;4.380;2023-02-18T10:50:43;11.65;;;2.28;;
18806;SDS011;9531;52.030;4.380;2023-02-18T10:53:11;16.65;;;2.33;;
18806;SDS011;9531;52.030;4.380;2023-02-18T10:55:46;13.07;;;2.17;;
18806;SDS011;9531;52.030;4.380;2023-02-18T10:58:25;13.70;;;2.35;;
18806;SDS011;9531;52.030;4.380;2023-02-18T11:00:56;19.13;;;3.08;;
18806;SDS011;9531;52.030;4.380;2023-02-18T11:03:25;7.63;;;2.10;;
18806;SDS011;9531;52.030;4.380;2023-02-18T11:06:03;16.27;;;2.50;;
18806;SDS011;9531;52.030;4.380;2023-02-18T11:08:41;12.55;;;1.95;;
18806;SDS011;9531;52.030;4.380;2023-02-18T11:11:13;13.60;;;2.42;;
18806;SDS011;9531;52.030;4.380;2023-02-18T11:13:43;17.02;;;3.10;;
18806;SDS011;9531;52.030;4.380;2023-02-18T11:16:13;9.98;;;2.22;;
18806;SDS011;9531;52.030;4.380;2023-02-18T11:18:41;14.65;;;2.33;;
18806;SDS011;9531;52.030;4.380;2023-02-18T11:21:19;15.38;;;2.75;;
18806;SDS011;9531;52.030;4.380;2023-02-18T11:23:52;17.02;;;2.67;;
18806;SDS011;9531;52.030;4.380;2023-02-18T11:26:36;19.27;;;2.72;;
18806;SDS011;9531;52.030;4.380;2023-02-18T11:29:06;17.17;;;2.50;;
18806;SDS011;9531;52.030;4.380;2023-02-18T11:31:41;13.85;;;3.75;;
18806;SDS011;9531;52.030;4.380;2023-02-18T11:34:14;18.05;;;2.33;;
18806;SDS011;9531;52.030;4.380;2023-02-18T11:36:45;11.05;;;1.95;;
18806;SDS011;9531;52.030;4.380;2023-02-18T11:39:16;18.50;;;2.45;;
18806;SDS011;9531;52.030;4.380;2023-02-18T11:41:48;16.35;;;2.47;;
18806;SDS011;9531;52.030;4.380;2023-02-18T11:44:21;12.27;;;2.33;;
18806;SDS011;9531;52.030;4.380;2023-02-18T11:46:58;12.40;;;2.10;;
18806;SDS011;9531;52.030;4.380;2023-02-18T11:49:28;15.93;;;2.53;;
18806;SDS011;9531;52.030;4.380;2023-02-18T11:52:02;14.65;;;2.35;;
18806;SDS011;9531;52.030;4.380;2023-02-18T11:54:35;11.63;;;2.35;;
18806;SDS011;9531;52.030;4.380;2023-02-18T11:57:08;15.32;;;2.33;;
18806;SDS011;9531;52.030;4.380;2023-02-18T11:59:38;13.82;;;2.58;;
18806;SDS011;9531;52.030;4.380;2023-02-18T12:02:12;11.02;;;2.08;;
18806;SDS011;9531;52.030;4.380;2023-02-18T12:04:53;13.68;;;2.03;;
18806;SDS011;9531;52.030;4.380;2023-02-18T12:07:28;16.23;;;2.80;;
18806;SDS011;9531;52.030;4.380;2023-02-18T12:10:03;14.63;;;2.38;;
18806;SDS011;9531;52.030;4.380;2023-02-18T12:12:42;15.82;;;2.65;;
18806;SDS011;9531;52.030;4.380;2023-02-18T12:15:13;17.95;;;2.53;;
18806;SDS011;9531;52.030;4.380;2023-02-18T12:20:44;12.52;;;2.17;;
18806;SDS011;9531;52.030;4.380;2023-02-18T12:23:26;16.23;;;2.45;;
18806;SDS011;9531;52.030;4.380;2023-02-18T12:26:00;10.70;;;1.85;;
18806;SDS011;9531;52.030;4.380;2023-02-18T12:28:40;9.52;;;1.80;;
18806;SDS011;9531;52.030;4.380;2023-02-18T12:31:20;9.75;;;1.65;;
18806;SDS011;9531;52.030;4.380;2023-02-18T12:34:00;9.02;;;1.80;;
18806;SDS011;9531;52.030;4.380;2023-02-18T12:36:48;13.23;;;1.92;;
18806;SDS011;9531;52.030;4.380;2023-02-18T12:39:34;14.68;;;2.10;;
18806;SDS011;9531;52.030;4.380;2023-02-18T12:42:21;10.38;;;2.22;;
18806;SDS011;9531;52.030;4.380;2023-02-18T12:45:01;10.48;;;2.35;;
18806;SDS011;9531;52.030;4.380;2023-02-18T12:48:02;9.82;;;2.10;;
18806;SDS011;9531;52.030;4.380;2023-02-18T12:50:48;13.23;;;2.08;;
18806;SDS011;9531;52.030;4.380;2023-02-18T12:53:44;7.35;;;1.75;;
18806;SDS011;9531;52.030;4.380;2023-02-18T12:56:25;7.90;;;1.98;;
18806;SDS011;9531;52.030;4.380;2023-02-18T12:59:12;5.50;;;1.38;;
18806;SDS011;9531;52.030;4.380;2023-02-18T13:02:02;5.10;;;1.30;;
18806;SDS011;9531;52.030;4.380;2023-02-18T13:04:51;9.30;;;1.60;;
18806;SDS011;9531;52.030;4.380;2023-02-18T13:07:35;10.13;;;1.90;;
18806;SDS011;9531;52.030;4.380;2023-02-18T13:10:24;7.68;;;1.83;;
18806;SDS011;9531;52.030;4.380;2023-02-18T13:13:09;10.93;;;2.25;;
18806;SDS011;9531;52.030;4.380;2023-02-18T13:15:39;8.27;;;1.98;;
18806;SDS011;9531;52.030;4.380;2023-02-18T13:18:14;12.38;;;2.15;;
18806;SDS011;9531;52.030;4.380;2023-02-18T13:20:47;13.05;;;1.73;;
18806;SDS011;9531;52.030;4.380;2023-02-18T13:23:18;8.43;;;2.05;;
18806;SDS011;9531;52.030;4.380;2023-02-18T13:25:48;10.57;;;2.28;;
18806;SDS011;9531;52.030;4.380;2023-02-18T13:28:22;6.35;;;1.70;;
18806;SDS011;9531;52.030;4.380;2023-02-18T13:31:00;9.82;;;2.05;;
18806;SDS011;9531;52.030;4.380;2023-02-18T13:33:43;12.23;;;2.17;;
18806;SDS011;9531;52.030;4.380;2023-02-18T13:36:18;11.63;;;2.20;;
18806;SDS011;9531;52.030;4.380;2023-02-18T13:39:03;10.15;;;2.00;;
18806;SDS011;9531;52.030;4.380;2023-02-18T13:41:36;10.63;;;1.75;;
18806;SDS011;9531;52.030;4.380;2023-02-18T13:44:08;5.57;;;1.85;;
18806;SDS011;9531;52.030;4.380;2023-02-18T13:46:57;9.57;;;1.90;;
18806;SDS011;9531;52.030;4.380;2023-02-18T13:49:34;10.23;;;1.92;;
18806;SDS011;9531;52.030;4.380;2023-02-18T13:52:05;8.80;;;1.60;;
18806;SDS011;9531;52.030;4.380;2023-02-18T13:54:41;8.70;;;1.63;;
18806;SDS011;9531;52.030;4.380;2023-02-18T13:57:12;5.97;;;1.50;;
18806;SDS011;9531;52.030;4.380;2023-02-18T13:59:42;5.22;;;1.23;;
18806;SDS011;9531;52.030;4.380;2023-02-18T14:07:48;7.55;;;1.73;;
18806;SDS011;9531;52.030;4.380;2023-02-18T14:10:27;10.75;;;1.80;;
18806;SDS011;9531;52.030;4.380;2023-02-18T14:15:52;7.88;;;1.98;;
18806;SDS011;9531;52.030;4.380;2023-02-18T14:18:33;17.13;;;2.50;;
18806;SDS011;9531;52.030;4.380;2023-02-18T14:21:35;8.93;;;1.70;;
18806;SDS011;9531;52.030;4.380;2023-02-18T14:24:11;8.57;;;2.00;;
18806;SDS011;9531;52.030;4.380;2023-02-18T14:26:39;7.90;;;1.92;;
18806;SDS011;9531;52.030;4.380;2023-02-18T14:29:11;9.23;;;1.90;;
18806;SDS011;9531;52.030;4.380;2023-02-18T14:31:49;8.95;;;1.83;;
18806;SDS011;9531;52.030;4.380;2023-02-18T14:37:22;10.77;;;2.03;;
18806;SDS011;9531;52.030;4.380;2023-02-18T14:40:05;10.18;;;2.13;;
18806;SDS011;9531;52.030;4.380;2023-02-18T14:42:55;14.40;;;2.45;;
18806;SDS011;9531;52.030;4.380;2023-02-18T14:45:39;9.90;;;2.05;;
18806;SDS011;9531;52.030;4.380;2023-02-18T14:48:38;10.38;;;2.33;;
18806;SDS011;9531;52.030;4.380;2023-02-18T14:51:14;15.20;;;2.47;;
18806;SDS011;9531;52.030;4.380;2023-02-18T14:53:48;5.18;;;1.50;;
18806;SDS011;9531;52.030;4.380;2023-02-18T14:56:16;6.90;;;2.05;;
18806;SDS011;9531;52.030;4.380;2023-02-18T14:58:50;9.73;;;2.20;;
18806;SDS011;9531;52.030;4.380;2023-02-18T15:03:56;11.48;;;2.50;;
18806;SDS011;9531;52.030;4.380;2023-02-18T15:06:27;9.75;;;2.08;;
18806;SDS011;9531;52.030;4.380;2023-02-18T15:08:57;11.75;;;2.08;;
18806;SDS011;9531;52.030;4.380;2023-02-18T15:11:25;9.95;;;2.13;;
18806;SDS011;9531;52.030;4.380;2023-02-18T15:14:02;11.20;;;2.25;;
18806;SDS011;9531;52.030;4.380;2023-02-18T15:16:34;15.25;;;2.35;;
18806;SDS011;9531;52.030;4.380;2023-02-18T15:19:03;11.15;;;2.35;;
18806;SDS011;9531;52.030;4.380;2023-02-18T15:21:34;13.35;;;2.03;;
18806;SDS011;9531;52.030;4.380;2023-02-18T15:24:07;11.23;;;1.95;;
18806;SDS011;9531;52.030;4.380;2023-02-18T15:26:40;12.80;;;2.38;;
18806;SDS011;9531;52.030;4.380;2023-02-18T15:29:14;15.07;;;2.58;;
18806;SDS011;9531;52.030;4.380;2023-02-18T15:31:44;15.70;;;2.45;;
18806;SDS011;9531;52.030;4.380;2023-02-18T15:34:26;10.45;;;2.30;;
18806;SDS011;9531;52.030;4.380;2023-02-18T15:37:06;12.63;;;2.40;;
18806;SDS011;9531;52.030;4.380;2023-02-18T15:39:38;13.98;;;2.78;;
18806;SDS011;9531;52.030;4.380;2023-02-18T15:42:13;18.88;;;3.03;;
18806;SDS011;9531;52.030;4.380;2023-02-18T15:44:47;12.85;;;2.58;;
18806;SDS011;9531;52.030;4.380;2023-02-18T15:47:16;16.70;;;3.15;;
18806;SDS011;9531;52.030;4.380;2023-02-18T15:49:45;11.02;;;2.33;;
18806;SDS011;9531;52.030;4.380;2023-02-18T15:52:15;17.15;;;2.85;;
18806;SDS011;9531;52.030;4.380;2023-02-18T15:54:50;14.43;;;2.72;;
18806;SDS011;9531;52.030;4.380;2023-02-18T15:57:18;14.40;;;2.60;;
18806;SDS011;9531;52.030;4.380;2023-02-18T15:59:53;16.35;;;2.53;;
18806;SDS011;9531;52.030;4.380;2023-02-18T16:02:37;20.52;;;3.45;;
18806;SDS011;9531;52.030;4.380;2023-02-18T16:05:17;11.20;;;2.45;;
18806;SDS011;9531;52.030;4.380;2023-02-18T16:07:59;11.13;;;2.17;;
18806;SDS011;9531;52.030;4.380;2023-02-18T16:10:38;17.05;;;3.38;;